Calgary Springbank Airport
CYBW : rendu visible

Aérodrome :











RETROUVEZ-NOUS SUR...

 
LOGIN :

S'inscrire | Disclaimer

   EN    FR    IT 

 









Légende :    VFR   VFR Marginal   IFR   IFR Intensif   IFR Très Intensif
Visi : 
Plafond : 
>= 8 km
>= 3000ft
5 à 8 km
1000 à 3000 ft
1500m à 5 km
500 à 1000 ft
800 à 1500m
200 à 500 ft
< 800m
< 200 ft
Symboles :   Orages  Brouillard  Fortes neiges  Fortes précipitations  Vent > 20 kt






- Altitude de l'aérodrome : 3937 ft
- Code IATA : YBW


CYBW - Calgary Springbank

DERNIER METAR :
  • 190300Z AUTO 15007KT 9SM SCT140 BKN170 M21/M25 A3015 RMK SLP345

METARs EXPIRÉS :
  • 190200Z AUTO 18008KT 9SM OVC160 M20/M24 A3016 RMK SLP348
  • 190100Z AUTO 15010KT 9SM OVC180 M20/M24 A3016 RMK SLP345

TAF TAF CYBW
Valide du 19 à 00h jusqu'au 19 à 05h UTC


182338Z 1900/1905 16010KT P6SM SCT080 BKN120 BKN200
FM190300 18008KT P6SM SCT140 SCT240 RMK FCST BASED ON AUTO OBS. NXT FCST WILL BE ISSUED AT 191245Z



MET'MAP, la Météo Aéronautique d'un coup d'oeil ! - Copyright ORBIFLY Décembre 2007 - Disclaimer

ORBIFLY MET'MAP TEAM :

Programmation & Développement : Alexandra Zaïnal
Sur une idée originale de : Baudouin d'Aumeries
Assistance à la programmation : Marc-Olivier Méhu
Soutien technique & logistique : Manuel Goepfert

Contact : metmap@orbifly.com




SOURCES & CREDITS :

   NOAA       Earth
Advisory